sensor_id;sensor_type;location;lat;lon;timestamp;pressure;altitude;pressure_sealevel;temperature;humidity
64064;BME280;50314;50.618;10.642;2023-10-31T00:01:04;94842.44;;;17.49;31.89
64064;BME280;50314;50.618;10.642;2023-10-31T00:03:31;94834.66;;;17.47;31.69
64064;BME280;50314;50.618;10.642;2023-10-31T00:05:56;94839.16;;;17.47;31.90
64064;BME280;50314;50.618;10.642;2023-10-31T00:08:22;94840.00;;;17.47;31.63
64064;BME280;50314;50.618;10.642;2023-10-31T00:10:49;94841.81;;;17.47;31.97
64064;BME280;50314;50.618;10.642;2023-10-31T00:13:15;94839.16;;;17.47;31.77
64064;BME280;50314;50.618;10.642;2023-10-31T00:15:41;94848.13;;;17.46;31.66
64064;BME280;50314;50.618;10.642;2023-10-31T00:18:07;94842.00;;;17.45;32.04
64064;BME280;50314;50.618;10.642;2023-10-31T00:20:32;94847.31;;;17.45;31.75
64064;BME280;50314;50.618;10.642;2023-10-31T00:22:58;94846.31;;;17.46;31.63
64064;BME280;50314;50.618;10.642;2023-10-31T00:25:24;94846.50;;;17.45;31.75
64064;BME280;50314;50.618;10.642;2023-10-31T00:27:50;94846.50;;;17.45;31.81
64064;BME280;50314;50.618;10.642;2023-10-31T00:30:15;94842.22;;;17.44;31.90
64064;BME280;50314;50.618;10.642;2023-10-31T00:32:41;94845.69;;;17.44;31.88
64064;BME280;50314;50.618;10.642;2023-10-31T00:35:07;94844.06;;;17.43;32.03
64064;BME280;50314;50.618;10.642;2023-10-31T00:37:33;94841.19;;;17.45;32.05
64064;BME280;50314;50.618;10.642;2023-10-31T00:39:58;94841.19;;;17.45;31.63
64064;BME280;50314;50.618;10.642;2023-10-31T00:42:24;94840.56;;;17.43;31.57
64064;BME280;50314;50.618;10.642;2023-10-31T00:44:49;94837.06;;;17.42;31.73
64064;BME280;50314;50.618;10.642;2023-10-31T00:47:15;94838.91;;;17.42;32.11
64064;BME280;50314;50.618;10.642;2023-10-31T00:49:41;94837.28;;;17.41;31.73
64064;BME280;50314;50.618;10.642;2023-10-31T00:52:06;94840.97;;;17.40;31.63
64064;BME280;50314;50.618;10.642;2023-10-31T00:54:32;94849.78;;;17.40;31.67
64064;BME280;50314;50.618;10.642;2023-10-31T00:56:58;94847.31;;;17.38;31.66
64064;BME280;50314;50.618;10.642;2023-10-31T00:59:23;94852.63;;;17.38;32.10
64064;BME280;50314;50.618;10.642;2023-10-31T01:01:49;94851.00;;;17.37;31.89
64064;BME280;50314;50.618;10.642;2023-10-31T01:04:15;94846.47;;;17.38;31.86
64064;BME280;50314;50.618;10.642;2023-10-31T01:06:43;94849.34;;;17.36;31.70
64064;BME280;50314;50.618;10.642;2023-10-31T01:09:09;94840.34;;;17.37;32.00
64064;BME280;50314;50.618;10.642;2023-10-31T01:11:35;94837.91;;;17.36;31.83
64064;BME280;50314;50.618;10.642;2023-10-31T01:14:01;94845.66;;;17.37;31.73
64064;BME280;50314;50.618;10.642;2023-10-31T01:16:27;94845.66;;;17.37;31.61
64064;BME280;50314;50.618;10.642;2023-10-31T01:18:52;94844.84;;;17.37;31.94
64064;BME280;50314;50.618;10.642;2023-10-31T01:21:18;94849.34;;;17.36;31.84
64064;BME280;50314;50.618;10.642;2023-10-31T01:23:44;94838.09;;;17.34;32.03
64064;BME280;50314;50.618;10.642;2023-10-31T01:26:09;94842.38;;;17.35;31.79
64064;BME280;50314;50.618;10.642;2023-10-31T01:28:35;94837.06;;;17.35;31.82
64064;BME280;50314;50.618;10.642;2023-10-31T01:31:00;94830.91;;;17.35;31.84
64064;BME280;50314;50.618;10.642;2023-10-31T01:33:26;94831.72;;;17.35;31.78
64064;BME280;50314;50.618;10.642;2023-10-31T01:35:52;94831.72;;;17.35;32.08
64064;BME280;50314;50.618;10.642;2023-10-31T01:38:17;94830.09;;;17.34;32.04
64064;BME280;50314;50.618;10.642;2023-10-31T01:40:43;94829.28;;;17.34;31.91
64064;BME280;50314;50.618;10.642;2023-10-31T01:43:09;94829.28;;;17.34;32.17
64064;BME280;50314;50.618;10.642;2023-10-31T01:45:34;94819.69;;;17.33;31.76
64064;BME280;50314;50.618;10.642;2023-10-31T01:48:00;94825.00;;;17.33;31.92
64064;BME280;50314;50.618;10.642;2023-10-31T01:50:26;94818.81;;;17.32;31.79
64064;BME280;50314;50.618;10.642;2023-10-31T01:52:53;94809.22;;;17.31;32.03
64064;BME280;50314;50.618;10.642;2023-10-31T01:55:18;94812.50;;;17.33;32.11
64064;BME280;50314;50.618;10.642;2023-10-31T01:57:48;94805.75;;;17.31;32.09
64064;BME280;50314;50.618;10.642;2023-10-31T02:00:14;94813.31;;;17.34;31.85
64064;BME280;50314;50.618;10.642;2023-10-31T02:02:40;94802.88;;;17.32;31.94
64064;BME280;50314;50.618;10.642;2023-10-31T02:05:10;94804.72;;;17.32;32.00
64064;BME280;50314;50.618;10.642;2023-10-31T02:07:35;94791.63;;;17.30;31.81
64064;BME280;50314;50.618;10.642;2023-10-31T02:10:01;94813.72;;;17.31;32.05
64064;BME280;50314;50.618;10.642;2023-10-31T02:12:34;94806.34;;;17.26;31.92
64064;BME280;50314;50.618;10.642;2023-10-31T02:15:00;94814.13;;;17.28;31.79
64064;BME280;50314;50.618;10.642;2023-10-31T02:17:26;94809.63;;;17.28;31.89
64064;BME280;50314;50.618;10.642;2023-10-31T02:19:51;94804.28;;;17.28;31.78
64064;BME280;50314;50.618;10.642;2023-10-31T02:22:17;94805.31;;;17.27;31.71
64064;BME280;50314;50.618;10.642;2023-10-31T02:24:42;94807.97;;;17.27;31.76
64064;BME280;50314;50.618;10.642;2023-10-31T02:27:08;94810.66;;;17.27;32.06
64064;BME280;50314;50.618;10.642;2023-10-31T02:29:34;94812.50;;;17.27;32.03
64064;BME280;50314;50.618;10.642;2023-10-31T02:31:59;94808.19;;;17.26;31.71
64064;BME280;50314;50.618;10.642;2023-10-31T02:34:25;94810.00;;;17.25;32.06
64064;BME280;50314;50.618;10.642;2023-10-31T02:36:51;94815.34;;;17.25;32.05
64064;BME280;50314;50.618;10.642;2023-10-31T02:39:17;94820.66;;;17.25;32.04
64064;BME280;50314;50.618;10.642;2023-10-31T02:41:43;94816.19;;;17.26;31.74
64064;BME280;50314;50.618;10.642;2023-10-31T02:44:09;94824.16;;;17.26;31.95
64064;BME280;50314;50.618;10.642;2023-10-31T02:46:38;94828.03;;;17.23;32.04
64064;BME280;50314;50.618;10.642;2023-10-31T02:49:04;94840.31;;;17.24;31.92
64064;BME280;50314;50.618;10.642;2023-10-31T02:51:29;94836.84;;;17.24;31.81
64064;BME280;50314;50.618;10.642;2023-10-31T02:53:55;94836.84;;;17.24;31.81
64064;BME280;50314;50.618;10.642;2023-10-31T02:56:21;94848.50;;;17.23;31.81
64064;BME280;50314;50.618;10.642;2023-10-31T02:58:46;94851.97;;;17.23;31.82
64064;BME280;50314;50.618;10.642;2023-10-31T03:01:12;94850.31;;;17.22;32.10
64064;BME280;50314;50.618;10.642;2023-10-31T03:03:37;94854.81;;;17.22;31.98
64064;BME280;50314;50.618;10.642;2023-10-31T03:06:04;94860.94;;;17.22;32.04
64064;BME280;50314;50.618;10.642;2023-10-31T03:08:30;94860.94;;;17.22;31.99
64064;BME280;50314;50.618;10.642;2023-10-31T03:10:56;94873.44;;;17.22;32.22
64064;BME280;50314;50.618;10.642;2023-10-31T03:13:22;94871.81;;;17.21;31.67
64064;BME280;50314;50.618;10.642;2023-10-31T03:15:48;94868.34;;;17.20;32.01
64064;BME280;50314;50.618;10.642;2023-10-31T03:18:14;94873.03;;;17.18;32.12
64064;BME280;50314;50.618;10.642;2023-10-31T03:20:40;94884.47;;;17.19;31.90
64064;BME280;50314;50.618;10.642;2023-10-31T03:23:06;94890.66;;;17.19;31.72
64064;BME280;50314;50.618;10.642;2023-10-31T03:25:32;94892.28;;;17.20;32.08
64064;BME280;50314;50.618;10.642;2023-10-31T03:27:57;94899.44;;;17.20;32.02
64064;BME280;50314;50.618;10.642;2023-10-31T03:30:23;94911.94;;;17.19;32.04
64064;BME280;50314;50.618;10.642;2023-10-31T03:32:49;94914.59;;;17.19;32.08
64064;BME280;50314;50.618;10.642;2023-10-31T03:35:14;94921.72;;;17.19;31.88
64064;BME280;50314;50.618;10.642;2023-10-31T03:37:40;94924.38;;;17.19;31.80
64064;BME280;50314;50.618;10.642;2023-10-31T03:40:09;94927.03;;;17.19;32.09
64064;BME280;50314;50.618;10.642;2023-10-31T03:42:35;94930.72;;;17.18;31.78
64064;BME280;50314;50.618;10.642;2023-10-31T03:45:00;94936.03;;;17.18;31.85
64064;BME280;50314;50.618;10.642;2023-10-31T03:47:26;94929.53;;;17.20;31.81
64064;BME280;50314;50.618;10.642;2023-10-31T03:49:51;94932.34;;;17.19;32.04
64064;BME280;50314;50.618;10.642;2023-10-31T03:52:17;94931.75;;;17.17;31.87
64064;BME280;50314;50.618;10.642;2023-10-31T03:54:44;94928.28;;;17.16;32.24
64064;BME280;50314;50.618;10.642;2023-10-31T03:57:10;94935.44;;;17.16;32.18
64064;BME280;50314;50.618;10.642;2023-10-31T03:59:37;94938.91;;;17.16;32.02
64064;BME280;50314;50.618;10.642;2023-10-31T04:02:03;94941.56;;;17.16;31.94
64064;BME280;50314;50.618;10.642;2023-10-31T04:04:28;94949.56;;;17.16;32.27
64064;BME280;50314;50.618;10.642;2023-10-31T04:06:54;94961.84;;;17.17;32.01
64064;BME280;50314;50.618;10.642;2023-10-31T04:09:20;94952.81;;;17.18;32.08
64064;BME280;50314;50.618;10.642;2023-10-31T04:11:45;94947.50;;;17.18;32.07
64064;BME280;50314;50.618;10.642;2023-10-31T04:14:11;94942.19;;;17.18;31.85
64064;BME280;50314;50.618;10.642;2023-10-31T04:16:41;94938.09;;;17.16;32.11
64064;BME280;50314;50.618;10.642;2023-10-31T04:19:14;94950.16;;;17.18;31.83
64064;BME280;50314;50.618;10.642;2023-10-31T04:21:39;94952.00;;;17.18;31.83
64064;BME280;50314;50.618;10.642;2023-10-31T04:24:05;94952.00;;;17.18;32.01
64064;BME280;50314;50.618;10.642;2023-10-31T04:26:31;94952.00;;;17.18;31.91
64064;BME280;50314;50.618;10.642;2023-10-31T04:28:57;94956.50;;;17.17;32.20
64064;BME280;50314;50.618;10.642;2023-10-31T04:31:22;94946.09;;;17.16;31.95
64064;BME280;50314;50.618;10.642;2023-10-31T04:33:48;94943.22;;;17.17;32.02
64064;BME280;50314;50.618;10.642;2023-10-31T04:36:13;94953.22;;;17.15;32.05
64064;BME280;50314;50.618;10.642;2023-10-31T04:38:39;94948.75;;;17.16;32.26
64064;BME280;50314;50.618;10.642;2023-10-31T04:41:04;94946.09;;;17.16;31.98
64064;BME280;50314;50.618;10.642;2023-10-31T04:43:30;94956.50;;;17.17;32.19
64064;BME280;50314;50.618;10.642;2023-10-31T04:45:56;94952.22;;;17.16;32.22
64064;BME280;50314;50.618;10.642;2023-10-31T04:48:21;94950.56;;;17.15;32.02
64064;BME280;50314;50.618;10.642;2023-10-31T04:50:47;94947.91;;;17.15;31.85
64064;BME280;50314;50.618;10.642;2023-10-31T04:53:12;94961.19;;;17.15;31.90
64064;BME280;50314;50.618;10.642;2023-10-31T04:55:38;94962.22;;;17.14;32.19
64064;BME280;50314;50.618;10.642;2023-10-31T04:58:04;94970.19;;;17.14;32.18
64064;BME280;50314;50.618;10.642;2023-10-31T05:00:29;94973.88;;;17.13;31.89
64064;BME280;50314;50.618;10.642;2023-10-31T05:02:55;94970.41;;;17.12;31.91
64064;BME280;50314;50.618;10.642;2023-10-31T05:05:22;94958.94;;;17.12;32.07
64064;BME280;50314;50.618;10.642;2023-10-31T05:07:47;94951.16;;;17.10;31.92
64064;BME280;50314;50.618;10.642;2023-10-31T05:10:13;94959.34;;;17.09;31.89
64064;BME280;50314;50.618;10.642;2023-10-31T05:12:39;94963.00;;;17.08;32.13
64064;BME280;50314;50.618;10.642;2023-10-31T05:15:05;94975.31;;;17.09;32.26
64064;BME280;50314;50.618;10.642;2023-10-31T05:17:30;94973.63;;;17.08;32.04
64064;BME280;50314;50.618;10.642;2023-10-31T05:19:56;94972.81;;;17.07;32.28
64064;BME280;50314;50.618;10.642;2023-10-31T05:22:22;94974.47;;;17.08;32.03
64064;BME280;50314;50.618;10.642;2023-10-31T05:24:47;94972.81;;;17.07;31.88
64064;BME280;50314;50.618;10.642;2023-10-31T05:27:13;94978.16;;;17.07;32.29
64064;BME280;50314;50.618;10.642;2023-10-31T05:29:39;94977.31;;;17.07;32.31
64064;BME280;50314;50.618;10.642;2023-10-31T05:32:04;94976.50;;;17.06;32.01
64064;BME280;50314;50.618;10.642;2023-10-31T05:34:30;94988.78;;;17.07;32.25
64064;BME280;50314;50.618;10.642;2023-10-31T05:36:56;94989.81;;;17.06;32.30
64064;BME280;50314;50.618;10.642;2023-10-31T05:39:21;94987.97;;;17.07;32.21
64064;BME280;50314;50.618;10.642;2023-10-31T05:41:47;94994.91;;;17.08;32.32
64064;BME280;50314;50.618;10.642;2023-10-31T05:44:12;94990.63;;;17.07;32.04
64064;BME280;50314;50.618;10.642;2023-10-31T05:46:39;94999.25;;;17.09;32.29
64064;BME280;50314;50.618;10.642;2023-10-31T05:49:06;94999.25;;;17.09;32.21
64064;BME280;50314;50.618;10.642;2023-10-31T05:51:32;95001.91;;;17.09;32.33
64064;BME280;50314;50.618;10.642;2023-10-31T05:54:00;95003.53;;;17.10;31.76
64064;BME280;50314;50.618;10.642;2023-10-31T05:56:25;95008.84;;;17.10;32.06
64064;BME280;50314;50.618;10.642;2023-10-31T05:58:51;95019.50;;;17.10;32.23
64064;BME280;50314;50.618;10.642;2023-10-31T06:01:16;95015.81;;;17.11;31.92
64064;BME280;50314;50.618;10.642;2023-10-31T06:03:43;95008.66;;;17.11;32.00
64064;BME280;50314;50.618;10.642;2023-10-31T06:06:09;95009.66;;;17.10;32.16
64064;BME280;50314;50.618;10.642;2023-10-31T06:08:36;95022.75;;;17.12;31.96
64064;BME280;50314;50.618;10.642;2023-10-31T06:11:03;95026.28;;;17.12;32.37
64064;BME280;50314;50.618;10.642;2023-10-31T06:13:29;95035.06;;;17.13;32.19
64064;BME280;50314;50.618;10.642;2023-10-31T06:15:56;95043.22;;;17.11;32.21
64064;BME280;50314;50.618;10.642;2023-10-31T06:18:23;95053.03;;;17.11;32.16
64064;BME280;50314;50.618;10.642;2023-10-31T06:20:49;95042.41;;;17.11;32.13
64064;BME280;50314;50.618;10.642;2023-10-31T06:23:14;95048.53;;;17.11;32.19
64064;BME280;50314;50.618;10.642;2023-10-31T06:25:40;95055.53;;;17.12;32.11
64064;BME280;50314;50.618;10.642;2023-10-31T06:28:06;95050.22;;;17.12;32.06
64064;BME280;50314;50.618;10.642;2023-10-31T06:30:31;95046.69;;;17.12;32.14
64064;BME280;50314;50.618;10.642;2023-10-31T06:32:58;95061.66;;;17.13;32.45
64064;BME280;50314;50.618;10.642;2023-10-31T06:35:23;95056.34;;;17.13;32.17
64064;BME280;50314;50.618;10.642;2023-10-31T06:37:55;95063.69;;;17.11;32.36
64064;BME280;50314;50.618;10.642;2023-10-31T06:40:21;95071.66;;;17.11;32.36
64064;BME280;50314;50.618;10.642;2023-10-31T06:42:47;95067.97;;;17.12;32.32
64064;BME280;50314;50.618;10.642;2023-10-31T06:45:13;95075.97;;;17.12;32.19
64064;BME280;50314;50.618;10.642;2023-10-31T06:47:38;95081.91;;;17.14;32.72
64064;BME280;50314;50.618;10.642;2023-10-31T06:50:04;95082.75;;;17.14;31.85
64064;BME280;50314;50.618;10.642;2023-10-31T06:52:30;95091.53;;;17.15;32.22
64064;BME280;50314;50.618;10.642;2023-10-31T06:54:56;95095.88;;;17.16;32.34
64064;BME280;50314;50.618;10.642;2023-10-31T06:57:21;95108.34;;;17.16;31.77
64064;BME280;50314;50.618;10.642;2023-10-31T06:59:47;95109.16;;;17.16;32.09
64064;BME280;50314;50.618;10.642;2023-10-31T07:02:13;95118.78;;;17.17;31.96
64064;BME280;50314;50.618;10.642;2023-10-31T07:04:39;95121.22;;;17.19;32.01
64064;BME280;50314;50.618;10.642;2023-10-31T07:07:05;95124.75;;;17.19;32.48
64064;BME280;50314;50.618;10.642;2023-10-31T07:09:30;95122.09;;;17.19;32.12
64064;BME280;50314;50.618;10.642;2023-10-31T07:11:56;95122.69;;;17.21;32.55
64064;BME280;50314;50.618;10.642;2023-10-31T07:14:21;95136.00;;;17.21;32.25
64064;BME280;50314;50.618;10.642;2023-10-31T07:16:47;95133.34;;;17.21;32.43
64064;BME280;50314;50.618;10.642;2023-10-31T07:19:14;95139.47;;;17.22;32.33
64064;BME280;50314;50.618;10.642;2023-10-31T07:21:39;95135.81;;;17.23;32.25
64064;BME280;50314;50.618;10.642;2023-10-31T07:24:05;95137.63;;;17.22;32.28
64064;BME280;50314;50.618;10.642;2023-10-31T07:26:34;95145.44;;;17.24;32.26
64064;BME280;50314;50.618;10.642;2023-10-31T07:29:00;95141.97;;;17.23;32.49
64064;BME280;50314;50.618;10.642;2023-10-31T07:31:26;95143.81;;;17.23;32.40
64064;BME280;50314;50.618;10.642;2023-10-31T07:33:51;95134.16;;;17.22;32.38
64064;BME280;50314;50.618;10.642;2023-10-31T07:36:17;95146.63;;;17.21;32.39
64064;BME280;50314;50.618;10.642;2023-10-31T07:38:43;95139.69;;;17.20;32.54
64064;BME280;50314;50.618;10.642;2023-10-31T07:41:08;95143.38;;;17.19;32.50
64064;BME280;50314;50.618;10.642;2023-10-31T07:43:34;95146.03;;;17.19;32.69
64064;BME280;50314;50.618;10.642;2023-10-31T07:46:00;95155.00;;;17.18;32.79
64064;BME280;50314;50.618;10.642;2023-10-31T07:48:26;95152.53;;;17.17;32.69
64064;BME280;50314;50.618;10.642;2023-10-31T07:50:51;95157.03;;;17.16;32.44
64064;BME280;50314;50.618;10.642;2023-10-31T07:53:17;95173.81;;;17.17;32.44
64064;BME280;50314;50.618;10.642;2023-10-31T07:55:42;95163.38;;;17.15;32.49
64064;BME280;50314;50.618;10.642;2023-10-31T07:58:08;95174.00;;;17.15;32.33
64064;BME280;50314;50.618;10.642;2023-10-31T08:00:39;95174.00;;;17.15;32.53
64064;BME280;50314;50.618;10.642;2023-10-31T08:03:04;95169.31;;;17.17;32.53
64064;BME280;50314;50.618;10.642;2023-10-31T08:05:30;95175.03;;;17.14;32.62
64064;BME280;50314;50.618;10.642;2023-10-31T08:07:56;95179.97;;;17.17;32.42
64064;BME280;50314;50.618;10.642;2023-10-31T08:10:21;95179.75;;;17.19;32.37
64064;BME280;50314;50.618;10.642;2023-10-31T08:12:47;95195.56;;;17.20;32.78
64064;BME280;50314;50.618;10.642;2023-10-31T08:15:12;95198.22;;;17.20;32.50
64064;BME280;50314;50.618;10.642;2023-10-31T08:17:39;95202.13;;;17.24;32.49
64064;BME280;50314;50.618;10.642;2023-10-31T08:20:05;95196.44;;;17.27;32.38
64064;BME280;50314;50.618;10.642;2023-10-31T08:22:31;95194.41;;;17.29;32.34
64064;BME280;50314;50.618;10.642;2023-10-31T08:24:57;95193.19;;;17.32;32.40
64064;BME280;50314;50.618;10.642;2023-10-31T08:27:22;95199.31;;;17.32;32.24
64064;BME280;50314;50.618;10.642;2023-10-31T08:29:48;95195.66;;;17.33;32.10
64064;BME280;50314;50.618;10.642;2023-10-31T08:32:14;95191.97;;;17.34;32.27
64064;BME280;50314;50.618;10.642;2023-10-31T08:34:39;95195.47;;;17.35;32.46
64064;BME280;50314;50.618;10.642;2023-10-31T08:37:05;95206.91;;;17.35;32.39
64064;BME280;50314;50.618;10.642;2023-10-31T08:39:30;95213.91;;;17.36;32.16
64064;BME280;50314;50.618;10.642;2023-10-31T08:41:57;95225.38;;;17.37;32.34
64064;BME280;50314;50.618;10.642;2023-10-31T08:44:24;95221.06;;;17.36;32.44
64064;BME280;50314;50.618;10.642;2023-10-31T08:46:50;95221.91;;;17.36;32.23
64064;BME280;50314;50.618;10.642;2023-10-31T08:49:16;95231.72;;;17.36;32.15
64064;BME280;50314;50.618;10.642;2023-10-31T08:51:42;95229.22;;;17.34;32.61
64064;BME280;50314;50.618;10.642;2023-10-31T08:54:08;95234.38;;;17.36;32.55
64064;BME280;50314;50.618;10.642;2023-10-31T08:56:35;95238.25;;;17.33;31.89
64064;BME280;50314;50.618;10.642;2023-10-31T08:59:00;95227.59;;;17.33;31.91
64064;BME280;50314;50.618;10.642;2023-10-31T09:01:27;95246.22;;;17.33;32.05
64064;BME280;50314;50.618;10.642;2023-10-31T09:03:54;95246.22;;;17.33;32.04
64064;BME280;50314;50.618;10.642;2023-10-31T09:06:20;95250.34;;;17.36;32.02
64064;BME280;50314;50.618;10.642;2023-10-31T09:08:46;95249.50;;;17.35;32.34
64064;BME280;50314;50.618;10.642;2023-10-31T09:11:11;95249.50;;;17.35;32.15
64064;BME280;50314;50.618;10.642;2023-10-31T09:13:37;95252.16;;;17.35;32.30
64064;BME280;50314;50.618;10.642;2023-10-31T09:16:03;95258.34;;;17.36;32.24
64064;BME280;50314;50.618;10.642;2023-10-31T09:18:28;95264.47;;;17.36;32.06
64064;BME280;50314;50.618;10.642;2023-10-31T09:20:54;95264.47;;;17.36;32.35
64064;BME280;50314;50.618;10.642;2023-10-31T09:23:20;95257.31;;;17.37;32.02
64064;BME280;50314;50.618;10.642;2023-10-31T09:25:46;95267.75;;;17.38;32.09
64064;BME280;50314;50.618;10.642;2023-10-31T09:28:12;95274.75;;;17.40;32.26
64064;BME280;50314;50.618;10.642;2023-10-31T09:30:38;95268.56;;;17.39;32.52
64064;BME280;50314;50.618;10.642;2023-10-31T09:33:03;95273.88;;;17.39;32.74
64064;BME280;50314;50.618;10.642;2023-10-31T09:35:29;95274.75;;;17.40;32.85
64064;BME280;50314;50.618;10.642;2023-10-31T09:37:55;95277.19;;;17.41;32.62
64064;BME280;50314;50.618;10.642;2023-10-31T09:40:21;95277.19;;;17.41;33.00
64064;BME280;50314;50.618;10.642;2023-10-31T09:42:47;95288.66;;;17.42;32.68
64064;BME280;50314;50.618;10.642;2023-10-31T09:45:14;95285.19;;;17.41;32.56
64064;BME280;50314;50.618;10.642;2023-10-31T09:47:40;95288.66;;;17.42;32.37
64064;BME280;50314;50.618;10.642;2023-10-31T09:50:07;95289.47;;;17.42;32.35
64064;BME280;50314;50.618;10.642;2023-10-31T09:52:38;95299.50;;;17.40;32.42
64064;BME280;50314;50.618;10.642;2023-10-31T09:55:05;95286.66;;;17.44;32.75
64064;BME280;50314;50.618;10.642;2023-10-31T09:57:31;95288.28;;;17.45;32.72
64064;BME280;50314;50.618;10.642;2023-10-31T09:59:57;95275.44;;;17.48;32.52
64064;BME280;50314;50.618;10.642;2023-10-31T10:02:22;95277.56;;;17.53;32.30
64064;BME280;50314;50.618;10.642;2023-10-31T10:04:48;95270.44;;;17.60;32.29
64064;BME280;50314;50.618;10.642;2023-10-31T10:07:18;95266.00;;;17.67;32.48
64064;BME280;50314;50.618;10.642;2023-10-31T10:09:45;95269.53;;;17.74;32.07
64064;BME280;50314;50.618;10.642;2023-10-31T10:12:12;95273.44;;;17.78;32.17
64064;BME280;50314;50.618;10.642;2023-10-31T10:14:39;95270.59;;;17.80;32.45
64064;BME280;50314;50.618;10.642;2023-10-31T10:17:16;95277.94;;;17.78;32.52
64064;BME280;50314;50.618;10.642;2023-10-31T10:19:42;95281.88;;;17.82;32.13
64064;BME280;50314;50.618;10.642;2023-10-31T10:22:08;95282.50;;;17.84;32.15
64064;BME280;50314;50.618;10.642;2023-10-31T10:24:33;95284.97;;;17.85;31.86
64064;BME280;50314;50.618;10.642;2023-10-31T10:26:59;95280.28;;;17.88;31.98
64064;BME280;50314;50.618;10.642;2023-10-31T10:29:25;95287.91;;;17.91;32.17
64064;BME280;50314;50.618;10.642;2023-10-31T10:31:51;95276.41;;;17.90;31.87
64064;BME280;50314;50.618;10.642;2023-10-31T10:34:17;95294.03;;;17.91;31.83
64064;BME280;50314;50.618;10.642;2023-10-31T10:36:47;95278.88;;;17.92;32.14
64064;BME280;50314;50.618;10.642;2023-10-31T10:39:21;95284.84;;;17.94;32.23
64064;BME280;50314;50.618;10.642;2023-10-31T10:41:52;95288.31;;;17.94;32.00
64064;BME280;50314;50.618;10.642;2023-10-31T10:44:31;95289.97;;;17.95;32.12
64064;BME280;50314;50.618;10.642;2023-10-31T10:46:58;95282.41;;;17.99;31.77
64064;BME280;50314;50.618;10.642;2023-10-31T10:49:27;95282.22;;;18.00;31.70
64064;BME280;50314;50.618;10.642;2023-10-31T10:51:56;95274.03;;;18.02;31.55
64064;BME280;50314;50.618;10.642;2023-10-31T10:54:32;95284.91;;;18.00;32.06
64064;BME280;50314;50.618;10.642;2023-10-31T10:57:14;95286.72;;;18.00;31.70
64064;BME280;50314;50.618;10.642;2023-10-31T10:59:42;95278.59;;;18.08;31.47
64064;BME280;50314;50.618;10.642;2023-10-31T11:02:09;95285.63;;;18.16;31.68
64064;BME280;50314;50.618;10.642;2023-10-31T11:04:37;95294.69;;;18.21;31.92
64064;BME280;50314;50.618;10.642;2023-10-31T11:07:02;95291.63;;;18.24;31.46
64064;BME280;50314;50.618;10.642;2023-10-31T11:09:30;95296.59;;;18.27;31.74
64064;BME280;50314;50.618;10.642;2023-10-31T11:11:57;95300.88;;;18.28;31.69
64064;BME280;50314;50.618;10.642;2023-10-31T11:14:23;95300.88;;;18.28;31.68
64064;BME280;50314;50.618;10.642;2023-10-31T11:16:53;95301.03;;;18.20;31.69
64064;BME280;50314;50.618;10.642;2023-10-31T11:19:23;95312.13;;;18.24;31.58
64064;BME280;50314;50.618;10.642;2023-10-31T11:21:59;95317.66;;;18.22;31.67
64064;BME280;50314;50.618;10.642;2023-10-31T11:24:31;95306.16;;;18.22;31.48
64064;BME280;50314;50.618;10.642;2023-10-31T11:27:02;95303.50;;;18.22;31.81
64064;BME280;50314;50.618;10.642;2023-10-31T11:29:31;95309.25;;;18.25;31.79
64064;BME280;50314;50.618;10.642;2023-10-31T11:31:57;95318.06;;;18.26;31.72
64064;BME280;50314;50.618;10.642;2023-10-31T11:34:25;95323.41;;;18.26;31.89
64064;BME280;50314;50.618;10.642;2023-10-31T11:36:51;95334.06;;;18.26;31.45
64064;BME280;50314;50.618;10.642;2023-10-31T11:39:21;95332.44;;;18.25;31.83
64064;BME280;50314;50.618;10.642;2023-10-31T11:41:54;95337.72;;;18.18;31.58
64064;BME280;50314;50.618;10.642;2023-10-31T11:44:23;95343.25;;;18.23;31.82
64064;BME280;50314;50.618;10.642;2023-10-31T11:46:50;95345.75;;;18.25;31.30
64064;BME280;50314;50.618;10.642;2023-10-31T11:49:18;95343.91;;;18.25;31.74
64064;BME280;50314;50.618;10.642;2023-10-31T11:51:46;95342.28;;;18.24;31.36
64064;BME280;50314;50.618;10.642;2023-10-31T11:54:16;95336.13;;;18.24;31.47
64064;BME280;50314;50.618;10.642;2023-10-31T11:56:50;95338.97;;;18.22;31.67
64064;BME280;50314;50.618;10.642;2023-10-31T11:59:17;95347.22;;;18.27;31.56
64064;BME280;50314;50.618;10.642;2023-10-31T12:01:46;95340.22;;;18.26;31.16
64064;BME280;50314;50.618;10.642;2023-10-31T12:04:22;95349.63;;;18.22;31.61
64064;BME280;50314;50.618;10.642;2023-10-31T12:06:57;95355.78;;;18.23;31.51
64064;BME280;50314;50.618;10.642;2023-10-31T12:09:23;95354.56;;;18.25;31.51
64064;BME280;50314;50.618;10.642;2023-10-31T12:11:49;95363.38;;;18.26;31.22
64064;BME280;50314;50.618;10.642;2023-10-31T12:14:18;95368.91;;;18.24;31.62
64064;BME280;50314;50.618;10.642;2023-10-31T12:16:45;95376.91;;;18.24;31.73
64064;BME280;50314;50.618;10.642;2023-10-31T12:19:11;95369.75;;;18.25;31.58
64064;BME280;50314;50.618;10.642;2023-10-31T12:24:12;95382.41;;;18.23;31.20
64064;BME280;50314;50.618;10.642;2023-10-31T12:26:39;95385.72;;;18.25;31.57
64064;BME280;50314;50.618;10.642;2023-10-31T12:29:17;95393.91;;;18.23;31.52
64064;BME280;50314;50.618;10.642;2023-10-31T12:31:48;95399.22;;;18.23;31.08
64064;BME280;50314;50.618;10.642;2023-10-31T12:34:15;95391.88;;;18.25;31.54
64064;BME280;50314;50.618;10.642;2023-10-31T12:36:42;95391.88;;;18.25;31.42
64064;BME280;50314;50.618;10.642;2023-10-31T12:39:11;95405.19;;;18.25;31.37
64064;BME280;50314;50.618;10.642;2023-10-31T12:41:40;95392.69;;;18.26;31.21
64064;BME280;50314;50.618;10.642;2023-10-31T12:44:07;95391.88;;;18.25;31.07
64064;BME280;50314;50.618;10.642;2023-10-31T12:46:39;95397.22;;;18.25;31.11
64064;BME280;50314;50.618;10.642;2023-10-31T12:49:11;95400.69;;;18.26;31.43